Arcadia, Pennsylvania
Current Conditions -  °F | °C
As of 5:35 AM on Thursday 18 Dec 2014 (Local Time) from KIDI Reporting Station
Overcast Overcast  
Wind Chill: 16°   Ceiling: 2300
Heat Index: 27°   Visibility: 8mi
Dew Point: 21°   Wind: 12mph
Humidity: 80%   Direction: 300°WNW
Pressure: 30.16"   Gusts: NA
Location:  40.78°N, 78.85°W
Report Text: KIDI 181035Z AUTO 30010KT 8SM BKN023 OVC027 M03/M06 A3016 RMK A01
Loading
Personal Weather Stations






























Interactive Weather Map New forecast layout! Learn more

10-Day Weather Forecast

Advertisements
Track Severe Weather on mobile